Time;durP1;ratioP1;P1;durP2;ratioP2;P2;SDS_P1;SDS_P2;PMS_P1;PMS_P2;Temp;Humidity;BMP_temperature;BMP_pressure;BME280_temperature;BME280_humidity;BME280_pressure;Samples;Min_cycle;Max_cycle;Signal;HPM_P1;HPM_P2
2023/10/07 00:02:18;;;;;;;12.45;4.03;;;;;;;12.68;39.78;100632.97;1726588;83;21936;-79
2023/10/07 00:05:32;;;;;;;16.67;4.75;;;;;;;12.68;39.80;100639.31;1743389;82;21343;-79
2023/10/07 00:08:34;;;;;;;18.95;4.53;;;;;;;12.75;39.71;100631.19;1727809;83;21341;-79
2023/10/07 00:11:46;;;;;;;14.90;5.25;;;;;;;12.63;39.88;100634.03;1743746;82;21374;-79
2023/10/07 00:14:51;;;;;;;26.57;5.15;;;;;;;12.58;40.01;100627.72;1726747;83;21432;-80
2023/10/07 00:17:57;;;;;;;13.35;4.75;;;;;;;12.54;40.18;100621.73;1752826;82;21314;-80
2023/10/07 00:21:04;;;;;;;21.10;4.60;;;;;;;12.48;40.34;100622.99;1723214;83;21322;-80
2023/10/07 00:24:16;;;;;;;22.77;5.35;;;;;;;12.49;40.36;100627.44;1752965;82;21315;-80
2023/10/07 00:27:30;;;;;;;12.25;4.28;;;;;;;12.47;40.47;100626.25;1723773;83;21334;-80
2023/10/07 00:30:35;;;;;;;12.70;4.42;;;;;;;12.41;40.56;100625.59;1754415;82;21322;-80
2023/10/07 00:33:57;;;;;;;10.70;4.75;;;;;;;12.37;40.68;100622.86;1723046;83;21338;-79
2023/10/07 00:36:58;;;;;;;13.60;3.95;;;;;;;12.36;40.65;100616.20;1754606;82;21323;-79
2023/10/07 00:40:30;;;;;;;9.18;4.50;;;;;;;12.36;40.56;100622.53;1724466;83;21311;-79
2023/10/07 00:43:32;;;;;;;17.85;4.67;;;;;;;12.39;40.51;100624.92;1754170;82;21361;-79
2023/10/07 00:46:38;;;;;;;18.00;4.28;;;;;;;12.50;40.29;100629.98;1724186;83;21354;-79
2023/10/07 00:49:54;;;;;;;12.35;3.85;;;;;;;12.50;40.24;100626.39;1755243;82;21271;-79
2023/10/07 00:55:59;;;;;;;7.55;4.05;;;;;;;12.35;40.39;100622.72;1752903;82;21302;-79
2023/10/07 00:59:08;;;;;;;16.27;5.15;;;;;;;12.35;40.36;100622.20;1723507;83;21338;-79
2023/10/07 01:02:18;;;;;;;19.20;4.45;;;;;;;12.38;40.31;100616.89;1753215;82;21723;-79
2023/10/07 01:05:27;;;;;;;16.35;4.53;;;;;;;12.41;40.27;100624.22;1724320;83;21347;-79
2023/10/07 01:09:22;;;;;;;13.53;4.45;;;;;;;12.46;40.17;100625.05;1754266;82;21334;-79
2023/10/07 01:11:45;;;;;;;14.98;3.67;;;;;;;12.49;40.05;100639.27;1742238;82;21850;-79
2023/10/07 01:14:49;;;;;;;22.10;4.53;;;;;;;12.48;40.02;100636.70;1725365;83;21278;-79
2023/10/07 01:18:04;;;;;;;23.00;4.85;;;;;;;12.41;40.08;100626.95;1754134;82;21315;-79
2023/10/07 01:21:08;;;;;;;13.58;3.90;;;;;;;12.38;40.05;100623.22;1724397;83;21335;-79
2023/10/07 01:24:14;;;;;;;24.50;4.95;;;;;;;12.45;39.80;100621.97;1753910;82;21919;-79
2023/10/07 01:27:28;;;;;;;11.22;4.97;;;;;;;12.38;39.68;100625.12;1722823;83;21358;-79
2023/10/07 01:30:34;;;;;;;18.50;4.90;;;;;;;12.07;40.15;100618.24;1753747;82;21342;-79
2023/10/07 01:33:47;;;;;;;10.93;5.25;;;;;;;11.86;40.44;100618.86;1724118;83;21918;-79
2023/10/07 01:36:54;;;;;;;15.43;6.12;;;;;;;11.66;40.78;100623.83;1752830;82;21901;-79
2023/10/07 01:40:01;;;;;;;18.27;6.35;;;;;;;11.57;40.90;100623.52;1724483;83;21315;-79
2023/10/07 01:43:08;;;;;;;10.78;5.47;;;;;;;11.52;41.09;100626.26;1753546;82;21351;-79
2023/10/07 01:46:19;;;;;;;20.75;5.50;;;;;;;11.56;41.11;100621.30;1724438;83;21354;-79
2023/10/07 01:49:22;;;;;;;10.40;4.80;;;;;;;11.56;41.06;100616.33;1754345;82;21326;-79
2023/10/07 01:52:29;;;;;;;17.10;4.25;;;;;;;11.54;41.16;100618.41;1724578;83;21335;-80
2023/10/07 01:55:34;;;;;;;11.88;4.72;;;;;;;11.49;41.32;100604.72;1754318;82;21892;-81
2023/10/07 01:58:41;;;;;;;17.32;4.80;;;;;;;11.35;41.60;100608.69;1723850;83;21345;-81
2023/10/07 02:01:58;;;;;;;9.93;5.03;;;;;;;11.34;41.67;100620.16;1753285;82;21369;-79
2023/10/07 02:05:04;;;;;;;13.38;4.78;;;;;;;11.19;41.81;100611.77;1724726;83;21857;-79
2023/10/07 02:08:11;;;;;;;11.38;4.53;;;;;;;11.17;41.82;100621.20;1754447;82;21338;-79
2023/10/07 02:11:18;;;;;;;17.73;3.95;;;;;;;10.97;42.26;100616.09;1724432;83;21318;-79
2023/10/07 02:14:25;;;;;;;8.35;4.05;;;;;;;11.01;42.29;100608.39;1753008;82;21334;-79
2023/10/07 02:17:31;;;;;;;28.00;4.45;;;;;;;11.00;42.30;100599.30;1717441;82;21355;-79
2023/10/07 02:20:40;;;;;;;14.53;4.95;;;;;;;11.02;42.24;100601.03;1772223;81;21302;-79
2023/10/07 02:23:46;;;;;;;14.00;4.12;;;;;;;11.01;42.30;100604.29;1772336;81;21338;-79
2023/10/07 02:26:54;;;;;;;8.83;3.62;;;;;;;11.02;42.32;100608.73;1771901;81;21668;-79
2023/10/07 02:30:01;;;;;;;17.07;4.10;;;;;;;11.01;42.31;100598.81;1770966;81;21358;-79
2023/10/07 02:33:13;;;;;;;8.28;3.85;;;;;;;10.97;42.40;100596.92;1772201;81;21335;-79
2023/10/07 02:36:36;;;;;;;9.00;4.63;;;;;;;10.94;42.47;100590.94;1771196;81;21846;-79
2023/10/07 02:39:49;;;;;;;18.32;4.65;;;;;;;10.96;42.55;100596.59;1772420;81;21430;-79
2023/10/07 02:42:56;;;;;;;14.15;4.10;;;;;;;11.02;42.54;100596.41;1772424;81;21292;-79
2023/10/07 02:46:02;;;;;;;12.00;3.60;;;;;;;11.06;42.54;100599.16;1772227;81;21331;-79
2023/10/07 02:49:13;;;;;;;11.68;5.47;;;;;;;11.09;42.29;100592.45;1772240;81;21905;-79
2023/10/07 02:52:21;;;;;;;16.30;5.10;;;;;;;10.87;42.54;100590.78;1772400;81;21224;-79
2023/10/07 02:58:49;;;;;;;18.75;4.70;;;;;;;10.79;42.91;100589.92;1771230;81;21327;-79
2023/10/07 03:02:12;;;;;;;11.70;4.70;;;;;;;10.85;42.91;100590.08;1770890;81;21873;-79
2023/10/07 03:08:22;;;;;;;12.55;4.05;;;;;;;10.55;43.47;100568.88;1771202;81;21331;-79
2023/10/07 03:11:40;;;;;;;10.95;4.65;;;;;;;10.52;43.81;100574.16;1772770;81;21291;-79
2023/10/07 03:14:36;;;;;;;12.25;4.70;;;;;;;10.57;43.67;100570.92;1771581;81;21322;-79
2023/10/07 03:17:45;;;;;;;15.10;4.50;;;;;;;10.58;43.67;100571.26;1772916;80;21881;-79
2023/10/07 03:21:03;;;;;;;16.20;4.53;;;;;;;10.32;44.05;100564.06;1787234;80;21310;-79
2023/10/07 03:23:59;;;;;;;14.63;4.85;;;;;;;10.37;44.01;100563.04;1788830;80;22586;-79
2023/10/07 03:27:10;;;;;;;13.75;4.50;;;;;;;10.45;43.87;100555.37;1788930;80;21318;-79
2023/10/07 03:30:19;;;;;;;18.25;5.28;;;;;;;10.42;43.81;100551.08;1787761;80;21983;-79
2023/10/07 03:33:45;;;;;;;21.33;3.98;;;;;;;10.35;43.64;100554.66;1787345;80;21853;-79
2023/10/07 03:40:26;;;;;;;12.10;4.45;;;;;;;10.19;43.70;100552.20;1788815;80;21294;-79
2023/10/07 03:43:34;;;;;;;16.85;4.00;;;;;;;10.18;43.74;100557.86;1788752;80;21321;-79
2023/10/07 03:46:42;;;;;;;10.75;4.12;;;;;;;10.12;44.02;100557.17;1788862;80;21860;-79
2023/10/07 03:49:58;;;;;;;12.37;5.85;;;;;;;10.07;44.26;100557.67;1789170;80;21654;-79
2023/10/07 03:52:58;;;;;;;;;;;;;;;10.08;44.49;100543.48;1791574;80;21365;-79
2023/10/07 03:56:07;;;;;;;13.38;4.45;;;;;;;10.12;44.44;100546.23;1788887;80;20249;-79
2023/10/07 03:59:15;;;;;;;14.68;4.53;;;;;;;10.11;44.50;100536.30;1787711;80;21307;-79
2023/10/07 04:02:35;;;;;;;17.27;4.83;;;;;;;10.13;44.59;100544.69;1787445;80;21995;-79
2023/10/07 04:05:45;;;;;;;34.35;6.00;;;;;;;10.03;44.74;100543.98;1787345;80;21315;-79
2023/10/07 04:08:52;;;;;;;19.10;5.12;;;;;;;9.97;44.82;100535.95;1788104;80;21357;-79
2023/10/07 04:11:55;;;;;;;15.35;5.70;;;;;;;10.01;44.86;100537.81;1754447;82;21842;-79
2023/10/07 04:15:02;;;;;;;17.80;5.53;;;;;;;10.15;44.65;100537.16;1724453;83;21350;-80
2023/10/07 04:18:09;;;;;;;15.03;5.92;;;;;;;10.06;44.94;100546.88;1753989;82;21862;-80
2023/10/07 04:21:17;;;;;;;11.08;5.50;;;;;;;10.17;44.89;100528.81;1724542;83;21322;-80
2023/10/07 04:24:28;;;;;;;17.57;6.62;;;;;;;10.22;45.04;100537.36;1754194;82;21858;-80
2023/10/07 04:27:33;;;;;;;;;;;;;;;10.38;44.89;100533.30;1727064;83;21346;-78
2023/10/07 04:30:39;;;;;;;30.25;7.90;;;;;;;10.55;44.78;100536.06;1753753;82;20268;-79
2023/10/07 04:33:48;;;;;;;19.77;8.95;;;;;;;10.64;44.88;100538.63;1724537;83;21334;-79
2023/10/07 04:44:21;;;;;;;25.95;10.10;;;;;;;10.63;45.33;100535.55;1724522;83;21322;-79
2023/10/07 04:46:43;;;;;;;39.35;13.08;;;;;;;10.80;45.31;100532.28;1716752;83;21342;-80
2023/10/07 04:49:55;;;;;;;39.10;13.57;;;;;;;10.97;45.19;100528.50;1723440;83;21354;-79
2023/10/07 04:53:02;;;;;;;41.63;14.18;;;;;;;11.11;45.01;100529.67;1724191;83;21349;-79
2023/10/07 04:56:03;;;;;;;38.17;13.60;;;;;;;11.17;44.89;100526.75;1724086;83;21314;-79
2023/10/07 04:59:11;;;;;;;40.25;14.03;;;;;;;11.32;44.48;100532.34;1723578;83;21892;-79
2023/10/07 05:02:20;;;;;;;39.20;13.95;;;;;;;11.31;44.33;100533.39;1723784;83;21892;-79
2023/10/07 05:05:30;;;;;;;43.55;11.65;;;;;;;11.29;44.38;100529.95;1724203;83;21900;-79
2023/10/07 05:08:36;;;;;;;34.05;11.05;;;;;;;11.27;44.54;100531.51;1724270;83;21349;-79
2023/10/07 05:11:47;;;;;;;33.00;12.13;;;;;;;11.46;44.26;100534.36;1724384;83;21326;-79
2023/10/07 05:14:55;;;;;;;31.75;12.03;;;;;;;11.61;44.17;100530.36;1724768;83;21339;-80
2023/10/07 05:18:05;;;;;;;42.20;11.38;;;;;;;11.80;44.04;100528.55;1724489;83;21865;-79
2023/10/07 05:21:11;;;;;;;37.85;10.38;;;;;;;11.96;44.02;100533.15;1723841;83;21905;-80
2023/10/07 05:24:19;;;;;;;22.15;9.33;;;;;;;12.27;43.83;100532.58;1724451;83;21343;-80
2023/10/07 05:27:25;;;;;;;27.17;8.85;;;;;;;12.57;43.56;100535.99;1723132;83;21358;-79
2023/10/07 05:30:32;;;;;;;26.77;8.60;;;;;;;12.75;43.42;100536.50;1752926;82;21349;-80
2023/10/07 05:33:37;;;;;;;24.95;7.62;;;;;;;12.98;43.07;100528.22;1724570;83;21346;-79
2023/10/07 05:36:44;;;;;;;18.90;7.20;;;;;;;13.30;42.50;100533.41;1754155;82;21311;-80
2023/10/07 05:39:51;;;;;;;27.93;7.37;;;;;;;13.69;42.09;100546.52;1724145;83;21334;-80
2023/10/07 05:42:58;;;;;;;20.57;7.72;;;;;;;13.87;41.64;100546.98;1754032;82;21330;-80
2023/10/07 05:46:03;;;;;;;17.67;7.25;;;;;;;13.95;41.62;100542.75;1724682;83;21876;-80
2023/10/07 05:49:10;;;;;;;22.52;6.62;;;;;;;14.30;41.05;100544.30;1753978;82;21338;-80
2023/10/07 05:52:18;;;;;;;23.83;6.87;;;;;;;14.56;40.54;100540.50;1724502;83;22589;-80
2023/10/07 05:55:24;;;;;;;20.92;6.37;;;;;;;14.86;40.04;100533.98;1754331;82;21912;-79
2023/10/07 05:58:29;;;;;;;22.17;6.37;;;;;;;15.06;39.83;100537.24;1724463;83;21865;-79
2023/10/07 06:01:33;;;;;;;18.80;5.97;;;;;;;15.29;39.49;100535.61;1753380;82;21350;-79
2023/10/07 06:04:28;;;;;;;21.60;5.78;;;;;;;15.34;39.14;100529.49;1724522;83;21902;-79
2023/10/07 06:07:18;;;;;;;12.45;5.72;;;;;;;15.48;38.92;100522.13;1754337;82;21314;-79
2023/10/07 06:10:24;;;;;;;19.50;6.30;;;;;;;15.74;38.56;100530.59;1723996;83;21928;-79
2023/10/07 06:13:29;;;;;;;18.25;6.50;;;;;;;16.05;38.20;100520.97;1754062;82;21334;-80
2023/10/07 06:16:36;;;;;;;17.82;5.97;;;;;;;16.22;37.87;100524.19;1724483;83;21342;-79
2023/10/07 06:19:43;;;;;;;18.00;6.42;;;;;;;16.42;37.56;100507.16;1754387;82;21200;-80
2023/10/07 06:22:50;;;;;;;22.25;6.80;;;;;;;16.62;37.38;100509.94;1723398;82;21338;-80
2023/10/07 06:26:01;;;;;;;24.40;6.58;;;;;;;16.86;36.97;100514.02;1754036;82;21905;-80
2023/10/07 06:29:18;;;;;;;19.17;6.70;;;;;;;17.11;36.63;100504.53;1724653;83;21634;-80
2023/10/07 06:32:43;;;;;;;11.68;5.33;;;;;;;17.44;36.12;100503.09;1754224;82;22080;-80
2023/10/07 06:35:37;;;;;;;24.12;7.22;;;;;;;17.54;35.42;100499.34;1723174;83;21306;-80
2023/10/07 06:38:52;;;;;;;27.40;7.42;;;;;;;17.79;34.88;100505.58;1754142;82;21861;-80
2023/10/07 06:41:57;;;;;;;32.40;7.70;;;;;;;18.02;34.78;100501.76;1723265;83;21351;-80
2023/10/07 06:45:08;;;;;;;;;;;;;;;18.19;34.35;100494.31;1755539;82;21872;-80
2023/10/07 06:48:15;;;;;;;22.77;7.85;;;;;;;18.32;34.31;100494.23;1746765;82;20441;-80
2023/10/07 06:51:23;;;;;;;29.87;9.43;;;;;;;18.54;34.33;100491.97;1746247;82;21358;-80
2023/10/07 06:54:33;;;;;;;24.20;9.90;;;;;;;18.78;33.58;100488.94;1722666;83;21351;-80
2023/10/07 06:57:41;;;;;;;;;;;;;;;18.92;33.43;100487.74;1755523;82;21322;-80
2023/10/07 07:00:49;;;;;;;37.35;12.03;;;;;;;19.06;33.48;100482.39;1753737;82;20291;-80
2023/10/07 07:03:54;;;;;;;24.27;11.12;;;;;;;19.18;33.32;100481.08;1723742;83;22691;-80
2023/10/07 07:07:16;;;;;;;26.15;11.15;;;;;;;19.44;33.21;100478.58;1724521;83;21346;-80
2023/10/07 07:10:27;;;;;;;36.73;13.10;;;;;;;19.69;32.17;100481.84;1724346;83;21901;-80
2023/10/07 07:13:27;;;;;;;33.25;13.08;;;;;;;19.71;32.44;100485.22;1722999;83;21326;-80
2023/10/07 07:16:41;;;;;;;28.65;14.30;;;;;;;19.89;32.17;100478.27;1723183;83;21322;-80
2023/10/07 07:19:44;;;;;;;39.58;16.52;;;;;;;20.17;31.85;100461.86;1702413;83;21984;-80
2023/10/07 07:22:52;;;;;;;31.52;16.95;;;;;;;20.36;31.46;100446.52;1720519;83;21346;-80
2023/10/07 07:29:17;;;;;;;40.45;17.30;;;;;;;20.72;30.54;100440.54;1772192;81;21336;-80
2023/10/07 07:32:19;;;;;;;41.30;16.05;;;;;;;20.83;30.55;100423.85;1770949;81;21988;-80
2023/10/07 07:35:38;;;;;;;19.70;9.75;;;;;;;20.96;30.40;100411.66;1772221;81;21299;-80
2023/10/07 07:38:47;;;;;;;21.07;6.87;;;;;;;21.11;29.87;100412.00;1772233;81;21303;-80
2023/10/07 07:41:58;;;;;;;18.98;7.03;;;;;;;21.22;29.24;100406.66;1771389;81;21327;-80
2023/10/07 07:45:15;;;;;;;;;;;;;;;20.96;29.35;100416.37;1774850;81;21307;-80
2023/10/07 07:48:14;;;;;;;23.00;6.20;;;;;;;20.81;29.30;100412.14;1750201;81;20262;-80
2023/10/07 07:51:25;;;;;;;17.80;6.15;;;;;;;20.84;29.09;100405.23;1743950;82;21362;-80
2023/10/07 07:54:32;;;;;;;11.85;5.55;;;;;;;20.89;29.14;100400.67;1706042;84;21323;-80
2023/10/07 07:57:44;;;;;;;13.22;5.83;;;;;;;20.95;29.16;100386.34;1708005;84;21342;-78
2023/10/07 08:01:01;;;;;;;14.30;4.92;;;;;;;21.06;29.53;100395.20;1770682;81;21342;-79
2023/10/07 08:04:10;;;;;;;12.85;4.22;;;;;;;21.22;28.99;100399.20;1708823;84;21374;-79
2023/10/07 08:07:24;;;;;;;18.67;4.55;;;;;;;21.09;28.81;100397.51;1772155;81;21315;-79
2023/10/07 08:10:28;;;;;;;12.68;4.42;;;;;;;21.21;28.81;100381.34;1772063;81;21323;-80
2023/10/07 08:13:42;;;;;;;12.55;4.00;;;;;;;21.24;28.61;100385.03;1860512;76;28015;-80
2023/10/07 08:16:52;;;;;;;11.03;3.98;;;;;;;21.32;28.57;100383.30;1780815;80;21307;-80
2023/10/07 08:19:58;;;;;;;9.58;3.40;;;;;;;21.44;28.38;100381.31;1813157;79;22516;-80
2023/10/07 08:23:21;;;;;;;10.50;3.27;;;;;;;21.52;28.25;100367.02;1779789;80;21322;-79
2023/10/07 08:26:23;;;;;;;7.95;3.17;;;;;;;21.54;28.34;100356.48;1780746;80;21311;-79
2023/10/07 08:29:34;;;;;;;10.90;3.50;;;;;;;21.54;27.96;100353.70;1779388;80;21327;-80
2023/10/07 08:32:46;;;;;;;12.43;3.77;;;;;;;21.65;28.16;100339.45;1780866;80;21343;-80
2023/10/07 08:35:52;;;;;;;10.13;4.25;;;;;;;21.79;27.67;100342.78;1781447;80;21300;-80
2023/10/07 08:39:05;;;;;;;10.30;3.95;;;;;;;21.87;27.50;100328.44;1781623;80;21319;-80
2023/10/07 08:42:13;;;;;;;12.03;6.60;;;;;;;21.86;27.89;100326.20;1781261;80;21302;-80
2023/10/07 08:45:23;;;;;;;17.67;8.85;;;;;;;22.06;27.66;100322.09;1781373;80;21307;-80
2023/10/07 08:48:26;;;;;;;16.13;8.83;;;;;;;22.35;26.98;100326.55;1780131;80;21307;-80
2023/10/07 08:51:39;;;;;;;12.58;7.17;;;;;;;22.54;26.99;100321.55;1781411;80;21992;-80
2023/10/07 08:54:44;;;;;;;18.98;8.63;;;;;;;22.76;26.89;100311.83;1781179;80;21332;-80
2023/10/07 08:57:52;;;;;;;23.87;7.90;;;;;;;22.87;26.61;100308.66;1781050;80;21897;-81
2023/10/07 09:01:01;;;;;;;21.10;9.53;;;;;;;23.03;26.40;100304.99;1781113;80;21581;-80
2023/10/07 09:04:07;;;;;;;24.52;8.05;;;;;;;23.11;26.03;100298.13;1782396;80;21287;-81
2023/10/07 09:07:13;;;;;;;17.98;8.73;;;;;;;23.00;25.88;100292.95;1781656;80;21319;-81
2023/10/07 09:10:27;;;;;;;16.20;8.00;;;;;;;22.95;26.10;100272.80;1781198;80;21326;-80
2023/10/07 09:13:31;;;;;;;20.72;7.05;;;;;;;23.06;26.00;100270.17;1775151;80;21354;-81
2023/10/07 09:16:38;;;;;;;19.75;7.58;;;;;;;23.14;25.49;100252.41;1751260;81;21896;-80
2023/10/07 09:19:48;;;;;;;27.48;7.10;;;;;;;23.08;25.78;100241.45;1772962;81;21304;-82
2023/10/07 09:22:54;;;;;;;14.03;6.92;;;;;;;23.05;25.91;100240.02;1772709;81;21343;-80
2023/10/07 09:26:05;;;;;;;25.10;6.83;;;;;;;23.09;25.94;100219.42;1749567;81;21299;-80
2023/10/07 09:29:21;;;;;;;20.68;8.98;;;;;;;23.19;25.89;100222.33;1772884;81;21331;-80
2023/10/07 09:32:21;;;;;;;18.48;7.00;;;;;;;23.23;25.73;100212.89;1772999;81;21299;-80
2023/10/07 09:35:22;;;;;;;18.27;6.62;;;;;;;23.36;25.78;100211.08;1772899;81;21315;-80
2023/10/07 09:38:41;;;;;;;25.00;6.00;;;;;;;23.53;25.52;100205.41;1771031;81;21370;-80
2023/10/07 09:41:37;;;;;;;18.48;7.10;;;;;;;23.59;25.22;100210.76;1771032;81;21625;-80
2023/10/07 09:44:44;;;;;;;16.32;7.17;;;;;;;23.65;25.33;100201.34;1770757;81;21354;-80
2023/10/07 09:47:54;;;;;;;22.40;8.60;;;;;;;23.69;25.23;100201.11;1771034;81;21359;-80
2023/10/07 09:51:01;;;;;;;;;;;;;;;23.66;25.31;100181.24;1775112;81;21307;-80
2023/10/07 09:54:47;;;;;;;11.20;5.17;;;;;;;23.65;25.19;100184.59;1772763;81;20250;-81
2023/10/07 09:57:56;;;;;;;12.25;4.05;;;;;;;23.52;25.03;100180.80;1773632;81;21264;-80
2023/10/07 10:01:28;;;;;;;10.03;2.90;;;;;;;23.46;25.10;100179.92;1772030;81;21351;-80
2023/10/07 10:04:57;;;;;;;13.95;2.60;;;;;;;23.58;24.84;100171.39;1771302;81;21359;-81
2023/10/07 10:08:19;;;;;;;8.95;2.90;;;;;;;23.71;24.58;100150.57;1771988;81;21324;-81
2023/10/07 10:18:35;;;;;;;23.55;2.92;;;;;;;23.70;24.42;100137.16;1740368;81;21921;-80
2023/10/07 10:21:15;;;;;;;12.23;2.60;;;;;;;23.66;24.55;100113.67;1771239;81;21319;-80
2023/10/07 10:24:23;;;;;;;9.43;2.42;;;;;;;23.60;24.47;100110.53;1771962;81;21304;-80
2023/10/07 10:27:31;;;;;;;13.93;2.85;;;;;;;23.66;24.14;100109.48;1772556;81;21861;-80
2023/10/07 10:30:41;;;;;;;13.28;2.20;;;;;;;23.61;24.18;100111.37;1772291;81;21339;-81
2023/10/07 10:33:52;;;;;;;9.40;2.67;;;;;;;23.64;24.31;100097.77;1772290;81;21901;-81
2023/10/07 10:36:56;;;;;;;6.22;2.75;;;;;;;23.80;24.33;100105.69;1772462;81;21314;-81
2023/10/07 10:40:05;;;;;;;7.37;2.52;;;;;;;24.06;24.20;100110.89;1772357;81;21299;-81
2023/10/07 10:43:11;;;;;;;9.47;2.40;;;;;;;24.20;24.11;100091.69;1772856;81;21299;-81
2023/10/07 10:46:17;;;;;;;24.43;2.60;;;;;;;24.33;24.07;100086.17;1772212;81;21327;-81
2023/10/07 10:49:27;;;;;;;10.53;2.50;;;;;;;24.40;23.79;100069.45;1771054;81;21314;-81
2023/10/07 10:52:34;;;;;;;25.40;4.20;;;;;;;24.33;23.92;100059.06;1772537;81;21299;-81
2023/10/07 10:55:46;;;;;;;9.10;2.65;;;;;;;24.37;23.92;100046.79;1771085;81;21934;-81
2023/10/07 10:59:01;;;;;;;13.10;3.30;;;;;;;24.32;24.09;100029.41;1771847;81;21343;-81
2023/10/07 11:02:07;;;;;;;19.00;3.42;;;;;;;24.48;24.18;100030.35;1770546;81;21383;-81
2023/10/07 11:05:14;;;;;;;21.42;3.52;;;;;;;24.49;24.17;100019.45;1770781;81;21316;-80
2023/10/07 11:08:24;;;;;;;13.35;2.45;;;;;;;24.63;24.35;100006.62;1771736;81;21316;-80
2023/10/07 11:11:35;;;;;;;22.85;3.00;;;;;;;24.73;24.32;100016.42;1771869;81;21304;-80
2023/10/07 11:14:42;;;;;;;14.45;2.58;;;;;;;24.66;24.39;100006.08;1770676;81;21342;-80
2023/10/07 11:17:49;;;;;;;10.95;3.33;;;;;;;24.69;24.44;100009.70;1772563;81;21871;-80
2023/10/07 11:20:55;;;;;;;7.62;2.72;;;;;;;24.70;24.34;100012.80;1771324;81;21859;-80
2023/10/07 11:24:03;;;;;;;7.95;3.10;;;;;;;24.52;24.79;99998.50;1731301;81;21303;-80
2023/10/07 11:27:09;;;;;;;20.15;3.33;;;;;;;24.40;25.12;99990.35;1772511;81;21326;-80
2023/10/07 11:30:20;;;;;;;20.10;3.20;;;;;;;24.38;25.38;99985.61;1772171;81;21363;-80
2023/10/07 11:33:26;;;;;;;16.42;3.52;;;;;;;24.46;25.29;99971.07;1772587;81;21276;-80
2023/10/07 11:36:31;;;;;;;21.02;2.95;;;;;;;24.56;25.32;99959.06;1771680;81;21867;-80
2023/10/07 11:39:43;;;;;;;12.28;2.80;;;;;;;24.55;25.38;99952.64;1773025;81;21323;-80
2023/10/07 11:42:46;;;;;;;13.40;3.47;;;;;;;24.29;25.59;99957.88;1772649;81;21319;-80
2023/10/07 11:45:52;;;;;;;16.37;2.83;;;;;;;24.14;25.78;99955.89;1771427;81;21338;-80
2023/10/07 11:48:59;;;;;;;20.82;3.33;;;;;;;24.16;26.35;99945.26;1772411;81;21291;-80
2023/10/07 11:52:06;;;;;;;23.35;3.00;;;;;;;24.21;26.53;99925.15;1771887;81;21320;-80
2023/10/07 11:55:17;;;;;;;20.23;3.02;;;;;;;24.38;26.42;99919.36;1772049;81;21342;-80
2023/10/07 11:58:23;;;;;;;27.90;3.22;;;;;;;24.59;26.34;99911.83;1772201;81;21312;-80
2023/10/07 12:01:32;;;;;;;29.32;3.08;;;;;;;24.61;26.53;99906.81;1771355;81;21315;-82
2023/10/07 12:04:43;;;;;;;14.45;2.98;;;;;;;24.66;26.49;99897.02;1772696;81;21327;-80
2023/10/07 12:07:47;;;;;;;12.95;2.70;;;;;;;24.66;26.67;99897.02;1772160;81;21323;-80
2023/10/07 12:10:56;;;;;;;19.15;3.62;;;;;;;24.85;26.69;99897.30;1771500;81;22826;-80
2023/10/07 12:14:01;;;;;;;11.85;3.58;;;;;;;24.82;26.97;99891.42;1771357;81;21851;-80
2023/10/07 12:17:08;;;;;;;19.80;4.67;;;;;;;24.84;27.25;99892.83;1763400;81;21909;-80
2023/10/07 12:20:20;;;;;;;16.17;4.00;;;;;;;24.86;27.90;99872.96;1810002;79;21291;-80
2023/10/07 12:23:25;;;;;;;16.25;3.62;;;;;;;24.72;28.49;99874.09;1810492;79;21569;-80
2023/10/07 12:26:31;;;;;;;15.13;3.87;;;;;;;24.70;28.65;99871.58;1808980;79;21342;-80
2023/10/07 12:29:39;;;;;;;10.32;3.55;;;;;;;24.98;28.37;99865.09;1810954;79;21854;-81
2023/10/07 12:32:46;;;;;;;10.25;3.42;;;;;;;25.01;28.27;99860.34;1809395;79;21953;-81
2023/10/07 12:35:53;;;;;;;24.75;4.10;;;;;;;25.08;28.10;99851.14;1810483;79;21323;-80
2023/10/07 12:38:59;;;;;;;13.85;3.25;;;;;;;25.30;27.77;99848.55;1810969;79;21319;-81
2023/10/07 12:42:07;;;;;;;16.17;3.50;;;;;;;25.28;27.83;99834.02;1810901;79;21307;-81
2023/10/07 12:45:14;;;;;;;15.90;3.25;;;;;;;25.39;27.91;99825.84;1810986;79;21299;-81
2023/10/07 12:48:20;;;;;;;9.10;2.92;;;;;;;25.43;27.98;99812.95;1809309;79;21545;-81
2023/10/07 12:51:25;;;;;;;9.63;3.65;;;;;;;25.73;27.72;99818.95;1809447;79;21304;-80
2023/10/07 12:54:32;;;;;;;14.25;3.83;;;;;;;25.84;27.42;99805.78;1810956;79;21854;-81
2023/10/07 12:57:41;;;;;;;10.58;3.12;;;;;;;25.79;27.63;99789.02;1810999;79;21866;-81
2023/10/07 13:00:45;;;;;;;18.20;3.98;;;;;;;25.61;27.84;99777.31;1810745;79;21326;-81
2023/10/07 13:03:52;;;;;;;13.32;3.60;;;;;;;25.70;27.86;99776.14;1811147;79;21423;-80
2023/10/07 13:07:09;;;;;;;13.13;4.72;;;;;;;25.70;27.77;99770.55;1810262;79;21303;-81
2023/10/07 13:10:12;;;;;;;19.05;4.35;;;;;;;25.69;28.03;99755.70;1811038;79;21315;-81
2023/10/07 13:13:21;;;;;;;28.80;4.47;;;;;;;25.56;28.14;99752.70;1811027;79;21315;-81
2023/10/07 13:16:27;;;;;;;22.07;3.90;;;;;;;25.50;28.28;99757.47;1809421;79;21311;-80
2023/10/07 13:19:36;;;;;;;11.75;3.30;;;;;;;25.52;27.80;99762.23;1807420;79;21328;-79
2023/10/07 13:22:40;;;;;;;22.32;4.08;;;;;;;25.62;27.28;99752.38;1802669;79;21304;-80
2023/10/07 13:25:46;;;;;;;19.27;3.17;;;;;;;25.71;27.12;99743.64;1802178;79;21366;-80
2023/10/07 13:28:54;;;;;;;8.13;3.15;;;;;;;25.61;27.20;99745.11;1802244;79;21296;-80
2023/10/07 13:31:54;;;;;;;17.87;3.75;;;;;;;25.51;27.08;99727.55;1801956;79;21347;-80
2023/10/07 13:34:47;;;;;;;15.85;4.00;;;;;;;25.47;27.37;99716.08;1802019;79;21299;-80
2023/10/07 13:37:57;;;;;;;14.70;4.30;;;;;;;25.68;27.09;99700.80;1800850;79;21933;-80
2023/10/07 13:41:04;;;;;;;13.88;4.10;;;;;;;25.72;26.90;99689.29;1802311;79;21288;-80
2023/10/07 13:44:10;;;;;;;24.35;4.60;;;;;;;25.79;26.93;99671.38;1802616;79;21295;-80
2023/10/07 13:47:18;;;;;;;22.22;4.58;;;;;;;25.77;26.86;99673.61;1801796;79;21355;-80
2023/10/07 13:50:27;;;;;;;17.25;4.50;;;;;;;25.82;26.85;99662.36;1802583;79;21331;-80
2023/10/07 13:57:03;;;;;;;27.20;5.37;;;;;;;25.59;27.46;99653.54;1802117;79;21319;-80
2023/10/07 14:00:28;;;;;;;28.32;5.05;;;;;;;25.54;27.67;99656.38;1802822;79;21295;-80
2023/10/07 14:03:20;;;;;;;17.67;4.85;;;;;;;25.56;27.77;99658.91;1801826;79;21327;-80
2023/10/07 14:06:27;;;;;;;23.22;4.90;;;;;;;25.61;27.80;99653.27;1802674;79;21299;-80
2023/10/07 14:09:38;;;;;;;36.42;5.17;;;;;;;25.57;27.99;99652.17;1802603;79;21841;-80
2023/10/07 14:12:42;;;;;;;16.25;4.58;;;;;;;25.53;28.17;99652.48;1802549;79;21339;-80
2023/10/07 14:15:49;;;;;;;28.87;4.28;;;;;;;25.51;28.23;99641.58;1802694;79;21881;-80
2023/10/07 14:18:57;;;;;;;14.03;4.30;;;;;;;25.49;28.39;99640.45;1800645;79;21347;-80
2023/10/07 14:22:04;;;;;;;20.80;4.87;;;;;;;25.46;28.47;99633.22;1801383;79;21350;-80
2023/10/07 14:25:12;;;;;;;21.40;5.35;;;;;;;25.47;28.57;99627.89;1802513;79;21303;-80
2023/10/07 14:28:21;;;;;;;18.37;5.87;;;;;;;25.57;28.43;99613.81;1801481;79;21315;-80
2023/10/07 14:31:26;;;;;;;22.95;5.78;;;;;;;25.57;28.48;99611.01;1801399;79;21303;-80
2023/10/07 14:34:33;;;;;;;13.22;5.17;;;;;;;25.62;28.50;99601.16;1801090;79;21354;-80
2023/10/07 14:37:40;;;;;;;18.77;5.20;;;;;;;25.47;28.70;99595.13;1801956;79;21323;-80
2023/10/07 14:40:50;;;;;;;10.98;4.62;;;;;;;25.39;28.96;99597.71;1802526;79;21898;-80
2023/10/07 14:43:57;;;;;;;26.52;5.95;;;;;;;25.21;29.30;99588.03;1802459;79;21319;-80
2023/10/07 14:47:06;;;;;;;18.20;5.92;;;;;;;25.18;29.46;99589.47;1802520;79;21869;-80
2023/10/07 14:50:13;;;;;;;12.60;5.37;;;;;;;25.04;29.81;99586.18;1802437;79;21291;-80
2023/10/07 14:53:21;;;;;;;17.77;5.87;;;;;;;24.99;30.16;99574.45;1802751;79;21260;-80
2023/10/07 14:56:28;;;;;;;22.90;5.65;;;;;;;24.95;30.24;99561.60;1801567;79;21604;-80
2023/10/07 14:59:35;;;;;;;24.95;7.45;;;;;;;24.96;30.48;99551.25;1801015;79;21319;-80
2023/10/07 15:02:42;;;;;;;21.82;6.87;;;;;;;25.11;30.35;99551.17;1802562;79;21842;-80
2023/10/07 15:05:48;;;;;;;20.27;6.62;;;;;;;25.03;30.58;99560.17;1802302;79;21299;-80